, TX

(GMT )
Ingleside

Weather History for KTFP - September, 2012

Change the Weather History Date:

Monday, September 3, 2012

  Actual Average Record
Temperature  
Mean Temperature 88 °F -  
Max Temperature 95 °F - - ()
Min Temperature 82 °F - - ()
Cooling Degree Days 24    
Growing Degree Days 38 (Base 50)    
Moisture  
Dew Point 75 °F    
Average Humidity 67    
Maximum Humidity 78    
Minimum Humidity 49    
Precipitation  
Precipitation 0.00 in - - ()
Sea Level Pressure  
Sea Level Pressure 29.95 in    
Wind  
Wind Speed 12 mph (SSE)    
Max Wind Speed 20 mph    
Max Gust Speed 28 mph    
Visibility 10 miles    
Events      
Averages and records for this station are not official NWS values.
T = Trace of Precipitation, MM = Missing Value Source: NWS Daily Summary

Daily Weather History Graph

Daily Weather History Graph

Search for Another Location

Airport or City:

Trip Planner

Search our weather history database for the weather conditions in past years. The results will help you decide how hot, cold, wet, or windy it might be!

Date:

Astronomy

Sep. 03, 2012 Rise Set
Actual Time 7:08 AM CDT 7:46 PM CDT
Civil Twilight 6:44 AM CDT 8:10 PM CDT
Nautical Twilight 6:17 AM CDT 8:38 PM CDT
Astronomical Twilight 5:48 AM CDT 9:06 PM CDT
Moon 9:31 PM CDT (9/3) 9:55 AM CDT (9/3)
Length of Visible Light 13h 25m
Length of Day
12h 38m
Waning Gibbous, 90% of the Moon is Illuminated
Sep 3
Waning Gibbous
Sep 8
Last Quarter
Sep 15
New
Sep 22
First Quarter
Sep 29
Full

Hourly Weather History & Observations

Time (CDT) Temp. Heat Index Dew Point Humidity Pressure Visibility Wind Dir Wind Speed Gust Speed Precip Events Conditions
12:15 AM 84.0 °F 92.9 °F 76.1 °F 77% 29.97 in 10.0 mi SSE 10.4 mph - N/A   Clear
12:35 AM 84.0 °F 93.3 °F 76.5 °F 78% 29.96 in 10.0 mi SSE 10.4 mph - N/A   Scattered Clouds
12:55 AM 84.2 °F 93.4 °F 76.5 °F 77% 29.96 in 10.0 mi South 11.5 mph - N/A   Scattered Clouds
1:15 AM 84.0 °F 92.6 °F 75.9 °F 76% 29.96 in 10.0 mi SSE 11.5 mph - N/A   Clear
1:35 AM 83.8 °F 92.1 °F 75.7 °F 76% 29.96 in 10.0 mi South 9.2 mph - N/A   Scattered Clouds
1:55 AM 83.7 °F 92.0 °F 75.7 °F 77% 29.97 in 10.0 mi SSE 9.2 mph - N/A   Scattered Clouds
2:15 AM 83.8 °F 91.8 °F 75.2 °F 75% 29.96 in 10.0 mi SSE 11.5 mph - N/A   Scattered Clouds
2:35 AM 83.7 °F 91.3 °F 75.0 °F 75% 29.96 in 10.0 mi South 12.7 mph 16.1 mph N/A   Clear
2:55 AM 83.7 °F 91.3 °F 74.8 °F 75% 29.96 in 10.0 mi South 10.4 mph - N/A   Scattered Clouds
3:15 AM 83.3 °F 90.5 °F 74.7 °F 75% 29.96 in 10.0 mi South 9.2 mph - N/A   Clear
3:35 AM 83.1 °F 90.4 °F 74.7 °F 76% 29.96 in 10.0 mi SSE 8.1 mph - N/A   Clear
3:55 AM 82.9 °F 89.9 °F 74.8 °F 76% 29.95 in 10.0 mi South 9.2 mph - N/A   Clear
4:15 AM 83.1 °F 90.7 °F 75.2 °F 77% 29.95 in 10.0 mi South 9.2 mph - N/A   Clear
4:35 AM 82.9 °F 90.2 °F 75.2 °F 77% 29.96 in 10.0 mi South 9.2 mph - N/A   Clear
5:15 AM 83.3 °F 91.1 °F 75.4 °F 77% 29.96 in 10.0 mi South 10.4 mph - N/A   Scattered Clouds
5:35 AM 83.3 °F 91.1 °F 75.4 °F 77% 29.96 in 10.0 mi South 8.1 mph - N/A   Scattered Clouds
5:55 AM 83.5 °F 91.2 °F 75.4 °F 76% 29.97 in 10.0 mi South 6.9 mph - N/A   Scattered Clouds
6:15 AM 83.5 °F 91.6 °F 75.6 °F 77% 29.97 in 10.0 mi South 10.4 mph - N/A   Mostly Cloudy
6:35 AM 83.5 °F 91.6 °F 75.6 °F 77% 29.97 in 10.0 mi SSE 9.2 mph - N/A   Scattered Clouds
6:55 AM 83.5 °F 91.6 °F 75.6 °F 77% 29.97 in 10.0 mi South 9.2 mph - N/A   Scattered Clouds
7:15 AM 83.5 °F 91.2 °F 75.4 °F 76% 29.98 in 10.0 mi South 5.8 mph - N/A   Scattered Clouds
7:35 AM 83.7 °F 91.7 °F 75.6 °F 76% 29.98 in 10.0 mi South 9.2 mph - N/A   Scattered Clouds
7:55 AM 84.7 °F 92.8 °F 75.0 °F 72% 29.99 in 10.0 mi South 8.1 mph - N/A   Scattered Clouds
8:15 AM 85.3 °F 94.6 °F 75.6 °F 73% 29.99 in 10.0 mi South 10.4 mph - N/A   Mostly Cloudy
8:35 AM 85.3 °F 95.0 °F 76.1 °F 74% 29.99 in 10.0 mi South 8.1 mph - N/A   Scattered Clouds
8:55 AM 86.2 °F 96.4 °F 76.3 °F 72% 29.99 in 10.0 mi South 10.4 mph - N/A   Clear
9:15 AM 87.8 °F 98.6 °F 76.1 °F 68% 29.99 in 10.0 mi South 11.5 mph 19.6 mph N/A   Clear
9:35 AM 88.0 °F 98.5 °F 75.9 °F 67% 30.00 in 10.0 mi South 11.5 mph - N/A   Scattered Clouds
9:55 AM 88.2 °F 99.5 °F 76.3 °F 68% 30.00 in 10.0 mi South 11.5 mph - N/A   Mostly Cloudy
10:15 AM 89.6 °F 101.0 °F 75.9 °F 64% 30.01 in 10.0 mi South 10.4 mph 17.3 mph N/A   Scattered Clouds
10:35 AM 88.9 °F 99.7 °F 75.9 °F 65% 30.01 in 10.0 mi South 13.8 mph 18.4 mph N/A   Scattered Clouds
10:55 AM 89.4 °F 100.5 °F 75.7 °F 64% 30.01 in 10.0 mi South 11.5 mph - N/A   Scattered Clouds
11:15 AM 90.3 °F 101.0 °F 75.4 °F 61% 30.00 in 10.0 mi South 13.8 mph 18.4 mph N/A   Scattered Clouds
11:35 AM 91.9 °F 101.3 °F 73.6 °F 55% 30.00 in 10.0 mi South 13.8 mph 20.7 mph N/A   Scattered Clouds
11:55 AM 93.0 °F 100.7 °F 71.8 °F 50% 30.00 in 10.0 mi South 16.1 mph 21.9 mph N/A   Clear
12:15 PM 93.0 °F 102.6 °F 73.6 °F 53% 30.00 in 10.0 mi South 12.7 mph 20.7 mph N/A   Scattered Clouds
12:35 PM 93.7 °F 103.6 °F 73.6 °F 52% 29.99 in 10.0 mi South 15.0 mph 19.6 mph N/A   Scattered Clouds
12:55 PM 94.1 °F 104.5 °F 73.9 °F 52% 29.99 in 10.0 mi SSE 17.3 mph 21.9 mph N/A   Clear
1:15 PM 94.1 °F 103.8 °F 73.4 °F 51% 29.98 in 10.0 mi South 16.1 mph 24.2 mph N/A   Clear
1:35 PM 94.5 °F 103.3 °F 72.5 °F 49% 29.98 in 10.0 mi South 17.3 mph 25.3 mph N/A   Clear
1:55 PM 94.5 °F 103.3 °F 72.3 °F 49% 29.97 in 10.0 mi South 12.7 mph 24.2 mph N/A   Clear
2:15 PM 94.3 °F 104.9 °F 73.9 °F 52% 29.97 in 10.0 mi SSE 17.3 mph 20.7 mph N/A   Clear
2:35 PM 94.3 °F 104.9 °F 73.9 °F 52% 29.96 in 10.0 mi SSE 19.6 mph 24.2 mph N/A   Clear
2:55 PM 93.9 °F 103.4 °F 73.6 °F 51% 29.95 in 10.0 mi SSE 17.3 mph 24.2 mph N/A   Clear
3:15 PM 94.3 °F 104.2 °F 73.6 °F 51% 29.94 in 10.0 mi SSE 18.4 mph 23.0 mph N/A   Clear
3:35 PM 95.0 °F 105.9 °F 74.3 °F 51% 29.93 in 10.0 mi SE 16.1 mph 23.0 mph N/A   Clear
3:55 PM 93.7 °F 105.0 °F 74.8 °F 54% 29.93 in 10.0 mi SE 18.4 mph 23.0 mph N/A   Clear
4:15 PM 93.4 °F 103.4 °F 73.9 °F 53% 29.92 in 10.0 mi SSE 19.6 mph 24.2 mph N/A   Clear
4:35 PM 93.0 °F 103.9 °F 74.5 °F 55% 29.92 in 10.0 mi SSE 19.6 mph - N/A   Clear
4:55 PM 92.7 °F 103.0 °F 74.5 °F 55% 29.91 in 10.0 mi SSE 19.6 mph 26.5 mph N/A   Clear
5:15 PM 92.3 °F 102.8 °F 74.7 °F 56% 29.90 in 10.0 mi SSE 19.6 mph 24.2 mph N/A   Clear
5:35 PM 92.1 °F 103.0 °F 74.8 °F 57% 29.90 in 10.0 mi SSE 17.3 mph 23.0 mph N/A   Clear
5:55 PM 91.2 °F 102.0 °F 75.0 °F 59% 29.89 in 10.0 mi SE 18.4 mph 24.2 mph N/A   Clear
6:15 PM 90.5 °F 102.1 °F 75.7 °F 62% 29.89 in 10.0 mi SE 17.3 mph 23.0 mph N/A   Clear
6:35 PM 89.4 °F 101.7 °F 76.6 °F 66% 29.89 in 10.0 mi SSE 17.3 mph - N/A   Clear
6:55 PM 88.5 °F 99.9 °F 76.5 °F 67% 29.89 in 10.0 mi SE 19.6 mph 24.2 mph N/A   Clear
7:15 PM 87.4 °F 98.7 °F 76.5 °F 70% 29.89 in 10.0 mi SE 18.4 mph 23.0 mph N/A   Clear
7:35 PM 86.5 °F 96.9 °F 76.1 °F 71% 29.89 in 10.0 mi SSE 16.1 mph 27.6 mph N/A   Clear
7:55 PM 85.6 °F 95.5 °F 76.1 °F 73% 29.89 in 10.0 mi SE 17.3 mph - N/A   Clear
8:15 PM 85.3 °F 94.6 °F 75.7 °F 73% 29.89 in 10.0 mi SE 18.4 mph 23.0 mph N/A   Clear
8:35 PM 85.3 °F 94.6 °F 75.9 °F 73% 29.91 in 10.0 mi SSE 13.8 mph 19.6 mph N/A   Clear
8:55 PM 85.1 °F 94.5 °F 75.9 °F 74% 29.91 in 10.0 mi SSE 18.4 mph 23.0 mph N/A   Clear
9:15 PM 85.1 °F 94.5 °F 75.9 °F 74% 29.92 in 10.0 mi SSE 15.0 mph 23.0 mph N/A   Scattered Clouds
9:35 PM 85.1 °F 94.1 °F 75.6 °F 73% 29.93 in 10.0 mi SSE 13.8 mph 25.3 mph N/A   Scattered Clouds
9:55 PM 85.1 °F 94.5 °F 75.9 °F 74% 29.94 in 10.0 mi South 16.1 mph 21.9 mph N/A   Scattered Clouds
10:15 PM 85.1 °F 94.5 °F 75.9 °F 74% 29.94 in 10.0 mi South 13.8 mph 23.0 mph N/A   Scattered Clouds
10:35 PM 85.1 °F 94.1 °F 75.6 °F 73% 29.95 in 10.0 mi South 15.0 mph - N/A   Scattered Clouds
10:55 PM 84.9 °F 93.3 °F 75.0 °F 72% 29.95 in 10.0 mi SSE 10.4 mph 19.6 mph N/A   Scattered Clouds
11:15 PM 84.7 °F 92.8 °F 74.8 °F 72% 29.95 in 10.0 mi South 11.5 mph 21.9 mph N/A   Scattered Clouds
11:35 PM 84.4 °F 92.4 °F 74.8 °F 73% 29.96 in 10.0 mi South 11.5 mph - N/A   Scattered Clouds
11:55 PM 84.4 °F 92.4 °F 75.0 °F 73% 29.95 in 10.0 mi South 9.2 mph - N/A   Scattered Clouds